ESGG/GOT METAR and TAF weather

Enter ICAO airport designator
Station Type Date Time Source
ESGG METAR 2019/10/18 05:50 UTC NOAA

ESGG 180550Z 11005KT 0250 R03/1000D R21/0550N FG VV003 07/07 Q1008


Station Type Date Time Source
ESGG Decoded METAR 2019/10/18 05:50 UTC NOAA

Goteborg / Landvetter, Sweden (ESGG) 57-40N 012-18E
Oct 18, 2019 - 01:50 AM EDT / 2019.10.18 0550 UTC
Wind: from the ESE (110 degrees) at 6 MPH (5 KT):0
Visibility: less than 1 mile:0
Sky conditions: obscured
Weather: fog
Temperature: 44 F (7 C)
Dew Point: 44 F (7 C)
Relative Humidity: 100%
Pressure (altimeter): 29.77 in. Hg (1008 hPa)
ob: ESGG 180550Z 11005KT 0250 R03/1000D R21/0550N FG VV003 07/07 Q1008
cycle: 6

Station Type Date Time Source
ESGG TAF 2019/10/18 06:33 UTC NOAA

TAF TAF ESGG 180530Z 1806/1906 15006KT 0300 FG VV002 PROB40 1806/1807 5000 BCFG FEW005
BECMG 1807/1809 9999 NSW BKN040
TEMPO 1809/1812 3000 RADZ BKN004
TEMPO 1812/1819 2000 -DZ BR BKN003
TEMPO 1819/1823 3000 SHRA BKN006 BKN020CB PROB40 1823/1906 BKN007

Example: see airport list